Omaha, Nebraska
Current Conditions -  °F | °C
As of 8:22 AM on Saturday 22 Nov 2014 (Local Time) from KOMA Reporting Station
Haze Haze  
Wind Chill: 35°   Ceiling: 400
Heat Index: 39°   Visibility: 2mi
Dew Point: 38°   Wind: 6mph
Humidity: 96%   Direction: 180°S
Pressure: 29.86"   Gusts: NA
Location:  41.26°N, 95.94°W
Report Text: KOMA 221422Z 18005KT 2SM BR OVC004 04/03 A2986 RMK AO2 SFC VIS 2 1/2 T00390033 $
Loading
Personal Weather Stations






























Interactive Weather Map New forecast layout! Learn more

10-Day Weather Forecast

Advertisements
Track Severe Weather on mobile